KLCQ

Lake City Gateway Airport

Lake City, Florida, USA
METAR KLCQ 182135Z AUTO 25004KT 10SM BKN110 29/22 A3003 RMK AO2 LTG DSNT S
Observed Flight Rules
Aug-18 @ 21:35 UTC (18 minutes ago) Visual Flight Rules
Wind Visibility Clouds
250° at 4 knots 10 miles
  • Broken at 11,000' AGL
Temperatures Readings
Current 29°C / 84°F
Dewpoint 22°C / 72°F
Humidity 66%
Altimeter 30.03" Hg
Pressure 1017 hPa
Elevation 61
METAR KLCQ 182135Z AUTO 25004KT 10SM BKN110 29/22 A3003 RMK AO2 LTG DSNT S
Observed Flight Rules
Aug-18 @ 21:35 UTC
(18 minutes ago)
VFR
Wind Visibility
250° at 4 knots 10 miles
Clouds
  • Broken at 11,000' AGL
Temperature Dewpoint
29°C / 84°F 22°C / 72°F
Humidity Altimeter Pressure
66% 30.03" Hg 1017 hPa